Terminal Aerodrome Forecast
Issued by NWS

Home | Current Version | Previous Version | Text Only | Print | Product List | Glossary On
Versions: 1 2 3 4 5 6 7 8 9 10 11 12 13 14 15 16
000
FTUS43 KDMX 281500 AAB
TAFFOD
TAF AMD
KFOD 281500Z 2815/2912 21016G22KT P6SM SKC
     FM281600 22015G25KT P6SM VCTS BKN015CB OVC070
     FM281700 22016G24KT P6SM BKN120
     FM282000 22015G23KT P6SM VCTS SCT030CB
     FM282300 23009KT P6SM SCT040=

USA.gov is the U.S. government's official web portal to all federal, state and local government web resources and services.